Terminal Aerodrome Forecast
Issued by NWS Twin Cities, MN

Home | Current Version | Previous Version | Text Only | Print | Product List | Glossary Off
Versions: 1 2 3 4 5 6 7 8 9 10 11 12 13 14 15 16 17 18 19 20 21 22 23 24 25 26

000
FTUS43 KMPX 251505 AAA
TAFMSP
TAF AMD
KMSP 251505Z 2515/2618 05007KT 5SM -SN SCT020 OVC040
      TEMPO 2515/2518 2SM -SN BKN020
     FM251900 01009KT P6SM BKN070
     FM260300 35010KT P6SM SCT050=

USA.gov is the U.S. government's official web portal to all federal, state and local government web resources and services.